createdAt,value
2022-07-29T00:01:57.900Z,100252.44
2022-07-29T00:04:29.535Z,100250.63
2022-07-29T00:06:56.529Z,100245.31
2022-07-29T00:09:25.554Z,100255.94
2022-07-29T00:11:52.756Z,100247.06
2022-07-29T00:14:19.472Z,100245.41
2022-07-29T00:16:46.193Z,100246.41
2022-07-29T00:19:12.776Z,100249.94
2022-07-29T00:21:39.387Z,100242.84
2022-07-29T00:24:06.054Z,100245.50
2022-07-29T00:26:33.542Z,100242.94
2022-07-29T00:29:32.527Z,100248.25
2022-07-29T00:31:49.966Z,100243.84
2022-07-29T00:34:37.742Z,100248.31
2022-07-29T00:37:09.340Z,100246.53
2022-07-29T00:39:35.996Z,100251.88
2022-07-29T00:42:08.647Z,100250.19
2022-07-29T00:44:39.129Z,100247.75
2022-07-29T00:47:10.115Z,100248.72
2022-07-29T00:49:37.546Z,100240.75
2022-07-29T00:52:07.284Z,100242.53
2022-07-29T00:54:34.461Z,100239.88
2022-07-29T00:57:03.924Z,100248.75
2022-07-29T00:59:34.792Z,100245.25
2022-07-29T01:02:02.179Z,100239.97
2022-07-29T01:04:30.636Z,100242.66
2022-07-29T01:06:57.476Z,100246.25
2022-07-29T01:09:37.292Z,100235.56
2022-07-29T01:12:22.740Z,100234.66
2022-07-29T01:14:49.355Z,100227.63
2022-07-29T01:17:18.715Z,100232.94
2022-07-29T01:20:06.936Z,100239.09
2022-07-29T01:22:35.751Z,100234.66
2022-07-29T01:25:11.408Z,100233.88
2022-07-29T01:27:56.760Z,100233.13
2022-07-29T01:30:23.726Z,100230.56
2022-07-29T01:32:54.507Z,100231.41
2022-07-29T01:35:24.846Z,100221.66
2022-07-29T01:37:55.909Z,100230.47
2022-07-29T01:40:28.077Z,100226.03
2022-07-29T01:42:58.506Z,100229.59
2022-07-29T01:45:38.506Z,100227.97
2022-07-29T01:48:07.367Z,100231.56
2022-07-29T01:50:35.896Z,100232.47
2022-07-29T01:53:03.773Z,100233.50
2022-07-29T01:55:33.341Z,100226.59
2022-07-29T01:57:59.980Z,100217.88
2022-07-29T02:00:26.754Z,100222.31
2022-07-29T02:02:53.731Z,100230.28
2022-07-29T02:05:20.434Z,100220.59
2022-07-29T02:07:47.615Z,100225.09
2022-07-29T02:10:14.618Z,100220.75
2022-07-29T02:12:49.872Z,100228.75
2022-07-29T02:15:19.877Z,100225.38
2022-07-29T02:17:56.494Z,100220.06
2022-07-29T02:20:25.990Z,100213.00
2022-07-29T02:22:52.628Z,100222.75
2022-07-29T02:25:19.260Z,100215.66
2022-07-29T02:27:48.932Z,100226.25
2022-07-29T02:30:15.480Z,100215.63
2022-07-29T02:32:42.556Z,100213.91
2022-07-29T02:35:09.765Z,100215.72
2022-07-29T02:37:36.836Z,100221.94
2022-07-29T02:40:06.010Z,100212.28
2022-07-29T02:42:32.568Z,100215.94
2022-07-29T02:44:59.828Z,100212.47
2022-07-29T02:47:42.048Z,100216.06
2022-07-29T02:50:09.407Z,100209.91
2022-07-29T02:52:36.464Z,100209.97
2022-07-29T02:55:05.932Z,100212.66
2022-07-29T02:57:54.604Z,100208.28
2022-07-29T03:00:25.213Z,100212.78
2022-07-29T03:02:52.336Z,100212.91
2022-07-29T03:05:19.926Z,100220.94
2022-07-29T03:07:47.255Z,100215.78
2022-07-29T03:10:14.916Z,100220.25
2022-07-29T03:12:41.475Z,100214.97
2022-07-29T03:15:10.594Z,100215.91
2022-07-29T03:17:37.447Z,100213.31
2022-07-29T03:20:04.122Z,100223.06
2022-07-29T03:22:30.709Z,100220.47
2022-07-29T03:24:57.546Z,100219.59
2022-07-29T03:27:26.505Z,100226.75
2022-07-29T03:29:55.819Z,100226.75
2022-07-29T03:32:24.056Z,100221.47
2022-07-29T03:34:52.616Z,100225.03
2022-07-29T03:37:21.520Z,100226.88
2022-07-29T03:39:48.173Z,100218.94
2022-07-29T03:42:15.101Z,100219.00
2022-07-29T03:44:42.248Z,100217.28
2022-07-29T03:47:08.785Z,100226.13
2022-07-29T03:49:38.127Z,100229.69
2022-07-29T03:52:07.290Z,100235.00
2022-07-29T03:54:33.884Z,100227.09
2022-07-29T03:57:03.299Z,100226.25
2022-07-29T03:59:29.950Z,100230.69
2022-07-29T04:01:56.701Z,100236.09
2022-07-29T04:04:23.619Z,100236.09
2022-07-29T04:06:50.564Z,100238.69
2022-07-29T04:09:17.138Z,100235.13
2022-07-29T04:12:02.035Z,100235.13
2022-07-29T04:14:30.557Z,100234.25
2022-07-29T04:16:59.639Z,100243.94
2022-07-29T04:19:26.318Z,100238.63
2022-07-29T04:21:55.333Z,100238.63
2022-07-29T04:24:22.100Z,100241.28
2022-07-29T04:26:49.209Z,100240.38
2022-07-29T04:29:18.166Z,100240.31
2022-07-29T04:31:48.020Z,100234.09
2022-07-29T04:34:14.903Z,100242.00
2022-07-29T04:36:41.872Z,100231.38
2022-07-29T04:39:09.040Z,100240.06
2022-07-29T04:41:35.632Z,100235.56
2022-07-29T04:44:07.034Z,100235.50
2022-07-29T04:46:34.302Z,100238.03
2022-07-29T04:49:00.956Z,100239.66
2022-07-29T04:51:27.610Z,100243.19
2022-07-29T04:53:56.808Z,100242.25
2022-07-29T04:56:23.729Z,100236.94
2022-07-29T04:58:53.271Z,100242.25
2022-07-29T05:01:26.242Z,100243.06
2022-07-29T05:03:57.010Z,100235.91
2022-07-29T05:06:26.541Z,100242.06
2022-07-29T05:08:55.552Z,100246.38
2022-07-29T05:11:24.975Z,100242.78
2022-07-29T05:13:53.971Z,100249.91
2022-07-29T05:16:20.567Z,100244.53
2022-07-29T05:18:47.240Z,100244.50
2022-07-29T05:21:14.084Z,100232.09
2022-07-29T05:23:41.120Z,100232.84
2022-07-29T05:26:07.745Z,100247.94
2022-07-29T05:28:35.802Z,100246.13
2022-07-29T05:31:04.846Z,100238.13
2022-07-29T05:33:35.399Z,100238.06
2022-07-29T05:36:12.077Z,100238.00
2022-07-29T05:38:41.359Z,100236.19
2022-07-29T05:41:08.815Z,100240.56
2022-07-29T05:43:35.315Z,100248.44
2022-07-29T05:46:02.392Z,100246.69
2022-07-29T05:48:29.065Z,100249.31
2022-07-29T05:50:55.754Z,100249.22
2022-07-29T05:53:25.071Z,100248.16
2022-07-29T05:55:52.671Z,100242.75
2022-07-29T05:58:19.282Z,100246.31
2022-07-29T06:00:45.928Z,100240.00
2022-07-29T06:03:15.660Z,100249.59
2022-07-29T06:05:42.367Z,100250.59
2022-07-29T06:08:11.512Z,100247.91
2022-07-29T06:10:38.545Z,100252.13
2022-07-29T06:13:08.177Z,100249.31
2022-07-29T06:15:39.851Z,100250.91
2022-07-29T06:18:10.099Z,100250.88
2022-07-29T06:20:39.965Z,100253.56
2022-07-29T06:23:10.871Z,100254.34
2022-07-29T06:25:38.724Z,100246.31
2022-07-29T06:28:05.496Z,100240.81
2022-07-29T06:30:34.485Z,100248.63
2022-07-29T06:33:02.974Z,100249.38
2022-07-29T06:35:38.537Z,100259.94
2022-07-29T06:38:30.653Z,100259.75
2022-07-29T06:41:01.809Z,100257.75
2022-07-29T06:43:32.418Z,100266.44
2022-07-29T06:46:05.525Z,100256.50
2022-07-29T06:48:32.467Z,100264.25
2022-07-29T06:50:59.157Z,100261.38
2022-07-29T06:53:26.359Z,100265.56
2022-07-29T06:55:53.290Z,100266.06
2022-07-29T06:58:22.572Z,100266.75
2022-07-29T07:00:55.492Z,100261.88
2022-07-29T07:03:22.284Z,100260.78
2022-07-29T07:05:49.038Z,100256.72
2022-07-29T07:08:17.102Z,100261.78
2022-07-29T07:10:46.131Z,100258.88
2022-07-29T07:13:12.744Z,100253.25
2022-07-29T07:15:40.265Z,100254.72
2022-07-29T07:18:07.795Z,100249.94
2022-07-29T07:20:35.095Z,100246.09
2022-07-29T07:23:04.141Z,100251.97
2022-07-29T07:25:30.948Z,100251.69
2022-07-29T07:28:02.596Z,100248.09
2022-07-29T07:30:29.237Z,100251.69
2022-07-29T07:32:56.382Z,100250.81
2022-07-29T07:35:23.026Z,100251.69
2022-07-29T07:37:53.760Z,100247.06
2022-07-29T07:40:24.200Z,100251.47
2022-07-29T07:42:53.266Z,100249.69
2022-07-29T07:45:20.031Z,100250.53
2022-07-29T07:47:46.603Z,100244.19
2022-07-29T07:50:21.233Z,100240.66
2022-07-29T07:52:51.829Z,100240.44
2022-07-29T07:55:18.607Z,100243.81
2022-07-29T07:57:45.670Z,100235.56
2022-07-29T08:00:13.365Z,100244.00
2022-07-29T08:02:40.549Z,100242.06
2022-07-29T08:05:08.432Z,100243.56
2022-07-29T08:07:39.490Z,100234.75
2022-07-29T08:10:08.762Z,100236.72
2022-07-29T08:12:35.533Z,100241.84
2022-07-29T08:15:02.306Z,100240.53
2022-07-29T08:17:29.321Z,100239.09
2022-07-29T08:19:56.105Z,100233.16
2022-07-29T08:22:22.808Z,100236.00
2022-07-29T08:24:57.205Z,100229.16
2022-07-29T08:27:44.764Z,100228.72
2022-07-29T08:30:14.716Z,100226.41
2022-07-29T08:32:53.787Z,100224.25
2022-07-29T08:35:22.160Z,100221.94
2022-07-29T08:37:51.621Z,100229.44
2022-07-29T08:40:18.326Z,100228.84
2022-07-29T08:42:47.283Z,100230.09
2022-07-29T08:45:13.866Z,100227.03
2022-07-29T08:47:40.901Z,100233.94
2022-07-29T08:50:09.014Z,100229.16
2022-07-29T08:52:40.137Z,100221.66
2022-07-29T08:55:07.624Z,100221.41
2022-07-29T08:57:34.947Z,100216.78
2022-07-29T09:00:08.092Z,100218.59
2022-07-29T09:02:46.925Z,100214.91
2022-07-29T09:05:14.942Z,100212.56
2022-07-29T09:07:44.277Z,100212.75
2022-07-29T09:10:13.532Z,100212.81
2022-07-29T09:12:42.527Z,100201.56
2022-07-29T09:15:09.524Z,100206.34
2022-07-29T09:17:43.131Z,100204.69
2022-07-29T09:20:10.833Z,100201.41
2022-07-29T09:22:41.829Z,100201.88
2022-07-29T09:25:09.668Z,100201.50
2022-07-29T09:27:36.668Z,100198.47
2022-07-29T09:30:11.529Z,100201.44
2022-07-29T09:33:01.889Z,100194.66
2022-07-29T09:35:29.010Z,100193.06
2022-07-29T09:37:55.854Z,100190.22
2022-07-29T09:40:26.647Z,100190.53
2022-07-29T09:42:57.938Z,100185.22
2022-07-29T09:45:27.747Z,100182.66
2022-07-29T09:47:55.128Z,100180.84
2022-07-29T09:50:25.274Z,100171.19
2022-07-29T09:52:53.024Z,100176.72
2022-07-29T09:55:22.105Z,100174.50
2022-07-29T09:57:49.361Z,100163.38
2022-07-29T10:00:17.123Z,100158.28
2022-07-29T10:02:47.657Z,100168.06
2022-07-29T10:05:19.893Z,100158.31
2022-07-29T10:07:53.219Z,100164.69
2022-07-29T10:10:22.041Z,100165.69
2022-07-29T10:12:51.709Z,100169.91
2022-07-29T10:15:18.587Z,100168.34
2022-07-29T10:17:46.007Z,100156.81
2022-07-29T10:20:16.586Z,100161.06
2022-07-29T10:22:53.493Z,100162.19
2022-07-29T10:25:21.225Z,100156.91
2022-07-29T10:27:48.536Z,100158.84
2022-07-29T10:30:15.803Z,100157.00
2022-07-29T10:33:01.354Z,100154.13
2022-07-29T10:35:40.110Z,100151.72
2022-07-29T10:38:18.712Z,100146.84
2022-07-29T10:41:06.645Z,100141.59
2022-07-29T10:43:39.210Z,100141.94
2022-07-29T10:46:09.100Z,100136.47
2022-07-29T10:48:41.232Z,100142.88
2022-07-29T10:51:10.428Z,100138.97
2022-07-29T10:53:48.547Z,100140.06
2022-07-29T10:56:33.470Z,100130.38
2022-07-29T10:59:18.793Z,100126.78
2022-07-29T11:01:50.271Z,100123.53
2022-07-29T11:04:39.568Z,100121.69
2022-07-29T11:07:06.171Z,100114.41
2022-07-29T11:09:37.786Z,100113.41
2022-07-29T11:12:25.944Z,100108.75
2022-07-29T11:14:53.327Z,100109.66
2022-07-29T11:17:20.428Z,100116.59
2022-07-29T11:19:51.922Z,100111.81
2022-07-29T11:22:37.163Z,100103.88
2022-07-29T11:25:16.796Z,100102.19
2022-07-29T11:27:44.533Z,100103.06
2022-07-29T11:30:13.221Z,100104.34
2022-07-29T11:32:48.731Z,100094.69
2022-07-29T11:38:21.064Z,100086.09
2022-07-29T11:41:07.919Z,100086.41
2022-07-29T11:44:09.014Z,100082.50
2022-07-29T11:46:51.321Z,100072.03
2022-07-29T11:49:32.035Z,100079.19
2022-07-29T11:52:02.547Z,100078.06
2022-07-29T11:54:38.736Z,100079.31
2022-07-29T11:57:21.297Z,100073.78
2022-07-29T11:59:48.649Z,100076.66
2022-07-29T12:02:36.507Z,100074.50
2022-07-29T12:05:10.869Z,100075.28
2022-07-29T12:07:01.567Z,100089.03
2022-07-29T12:07:38.500Z,100071.63
2022-07-29T12:10:11.481Z,100073.06
2022-07-29T12:12:51.951Z,100060.75
2022-07-29T12:15:21.507Z,100065.31
2022-07-29T12:17:49.702Z,100060.75
2022-07-29T12:20:23.847Z,100060.28
2022-07-29T12:22:54.655Z,100058.69
2022-07-29T12:25:37.233Z,100060.78
2022-07-29T12:28:05.512Z,100052.31
2022-07-29T12:30:47.061Z,100045.16
2022-07-29T12:33:18.651Z,100047.44
2022-07-29T12:35:54.067Z,100043.06
2022-07-29T12:38:32.825Z,100035.41
2022-07-29T12:40:59.501Z,100034.53
2022-07-29T12:43:28.572Z,100020.16
2022-07-29T12:45:56.053Z,100020.03
2022-07-29T12:48:34.884Z,100020.25
2022-07-29T12:51:02.435Z,100019.72
2022-07-29T12:53:33.655Z,100011.44
2022-07-29T12:56:20.634Z,100019.19
2022-07-29T12:58:54.990Z,100009.25
2022-07-29T13:01:23.924Z,100012.34
2022-07-29T13:04:01.861Z,100007.25
2022-07-29T13:06:32.884Z,100006.75
2022-07-29T13:09:09.104Z,100016.84
2022-07-29T13:11:36.728Z,100002.94
2022-07-29T13:14:06.633Z,100003.03
2022-07-29T13:16:36.420Z,99991.41
2022-07-29T13:19:11.473Z,99992.69
2022-07-29T13:21:39.171Z,99988.22
2022-07-29T13:24:09.585Z,99989.22
2022-07-29T13:26:36.214Z,99987.19
2022-07-29T13:29:07.322Z,99986.03
2022-07-29T13:31:34.114Z,99991.25
2022-07-29T13:34:00.737Z,99982.38
2022-07-29T13:36:32.989Z,99988.34
2022-07-29T13:38:59.655Z,99988.13
2022-07-29T13:41:29.271Z,99981.75
2022-07-29T13:43:58.830Z,99970.63
2022-07-29T13:46:25.525Z,99972.38
2022-07-29T13:48:52.902Z,99973.03
2022-07-29T13:51:22.052Z,99965.56
2022-07-29T13:53:48.798Z,99971.94
2022-07-29T13:56:15.431Z,99961.69
2022-07-29T13:58:44.999Z,99964.47
2022-07-29T14:01:12.069Z,99960.72
2022-07-29T14:03:42.212Z,99944.38
2022-07-29T14:06:18.245Z,99954.19
2022-07-29T14:08:45.603Z,99945.38
2022-07-29T14:11:14.802Z,99950.97
2022-07-29T14:13:41.580Z,99956.91
2022-07-29T14:16:08.783Z,99944.72
2022-07-29T14:18:37.789Z,99943.63
2022-07-29T14:21:07.555Z,99937.41
2022-07-29T14:23:34.892Z,99933.41
2022-07-29T14:26:04.261Z,99925.53
2022-07-29T14:28:38.970Z,99937.31
2022-07-29T14:31:08.569Z,99934.63
2022-07-29T14:33:35.794Z,99937.19
2022-07-29T14:36:02.952Z,99938.56
2022-07-29T14:38:29.614Z,99926.16
2022-07-29T14:40:56.270Z,99916.97
2022-07-29T14:43:23.012Z,99925.47
2022-07-29T14:45:50.042Z,99922.66
2022-07-29T14:48:16.629Z,99920.06
2022-07-29T14:50:43.384Z,99912.31
2022-07-29T14:53:10.052Z,99909.97
2022-07-29T14:55:36.735Z,99913.00
2022-07-29T14:58:10.902Z,99901.59
2022-07-29T15:00:38.818Z,99901.41
2022-07-29T15:03:05.725Z,99896.25
2022-07-29T15:05:35.950Z,99888.97
2022-07-29T15:08:05.455Z,99882.41
2022-07-29T15:10:35.316Z,99892.19
2022-07-29T15:13:01.939Z,99890.81
2022-07-29T15:15:28.506Z,99891.66
2022-07-29T15:17:57.887Z,99888.19
2022-07-29T15:20:28.140Z,99883.69
2022-07-29T15:22:56.508Z,99876.44
2022-07-29T15:25:26.336Z,99879.28
2022-07-29T15:28:00.577Z,99880.03
2022-07-29T15:30:33.923Z,99881.44
2022-07-29T15:33:03.940Z,99878.59
2022-07-29T15:35:31.325Z,99872.06
2022-07-29T15:37:57.987Z,99880.69
2022-07-29T15:40:25.032Z,99878.28
2022-07-29T15:42:51.747Z,99870.06
2022-07-29T15:45:20.901Z,99868.56
2022-07-29T15:47:47.482Z,99870.19
2022-07-29T15:50:17.193Z,99870.69
2022-07-29T15:52:43.828Z,99861.09
2022-07-29T15:55:16.401Z,99861.34
2022-07-29T15:57:47.990Z,99857.75
2022-07-29T16:00:17.962Z,99852.63
2022-07-29T16:02:46.989Z,99854.59
2022-07-29T16:05:18.239Z,99854.31
2022-07-29T16:07:44.854Z,99847.63
2022-07-29T16:10:13.974Z,99846.56
2022-07-29T16:12:43.040Z,99850.50
2022-07-29T16:15:12.089Z,99851.50
2022-07-29T16:17:41.923Z,99847.75
2022-07-29T16:20:08.703Z,99856.72
2022-07-29T16:22:35.402Z,99848.19
2022-07-29T16:25:01.988Z,99851.91
2022-07-29T16:27:35.602Z,99846.72
2022-07-29T16:30:07.466Z,99839.31
2022-07-29T16:32:34.691Z,99845.47
2022-07-29T16:35:02.829Z,99842.81
2022-07-29T16:37:39.191Z,99843.06
2022-07-29T16:40:11.510Z,99838.41
2022-07-29T16:42:47.256Z,99826.88
2022-07-29T16:45:14.981Z,99832.28
2022-07-29T16:47:42.108Z,99832.72
2022-07-29T16:50:08.739Z,99842.50
2022-07-29T16:52:36.058Z,99830.69
2022-07-29T16:55:02.657Z,99831.88
2022-07-29T16:57:29.223Z,99835.28
2022-07-29T16:59:55.902Z,99835.84
2022-07-29T17:02:22.557Z,99837.13
2022-07-29T17:04:49.139Z,99831.72
2022-07-29T17:07:16.084Z,99830.66
2022-07-29T17:09:45.011Z,99829.16
2022-07-29T17:12:19.518Z,99834.47
2022-07-29T17:14:46.720Z,99833.78
2022-07-29T17:17:13.719Z,99838.13
2022-07-29T17:19:44.490Z,99837.72
2022-07-29T17:22:17.226Z,99839.56
2022-07-29T17:24:45.629Z,99845.69
2022-07-29T17:27:12.561Z,99847.59
2022-07-29T17:29:39.347Z,99842.44
2022-07-29T17:32:07.753Z,99842.56
2022-07-29T17:34:37.501Z,99843.09
2022-07-29T17:37:07.455Z,99837.50
2022-07-29T17:39:36.551Z,99839.75
2022-07-29T17:42:03.976Z,99842.09
2022-07-29T17:44:36.326Z,99842.69
2022-07-29T17:47:03.836Z,99839.78
2022-07-29T17:49:36.285Z,99839.53
2022-07-29T17:52:04.115Z,99845.97
2022-07-29T17:54:35.605Z,99842.63
2022-07-29T17:57:04.403Z,99831.72
2022-07-29T17:59:31.028Z,99845.47
2022-07-29T18:02:01.672Z,99844.19
2022-07-29T18:04:31.581Z,99848.25
2022-07-29T18:06:58.545Z,99854.03
2022-07-29T18:09:28.951Z,99850.00
2022-07-29T18:11:55.968Z,99849.84
2022-07-29T18:14:22.862Z,99852.25
2022-07-29T18:16:49.548Z,99847.28
2022-07-29T18:19:16.242Z,99853.31
2022-07-29T18:21:51.212Z,99850.13
2022-07-29T18:24:27.491Z,99860.38
2022-07-29T18:26:54.157Z,99860.78
2022-07-29T18:29:20.824Z,99864.91
2022-07-29T18:31:47.423Z,99865.47
2022-07-29T18:34:14.546Z,99866.88
2022-07-29T18:36:41.188Z,99866.47
2022-07-29T18:39:07.804Z,99866.72
2022-07-29T18:41:46.036Z,99875.03
2022-07-29T18:44:21.950Z,99888.06
2022-07-29T18:46:49.654Z,99898.06
2022-07-29T18:49:16.338Z,99898.34
2022-07-29T18:51:45.432Z,99893.34
2022-07-29T18:54:14.467Z,99902.88
2022-07-29T18:56:41.230Z,99911.34
2022-07-29T18:59:10.609Z,99914.09
2022-07-29T19:01:39.837Z,99912.66
2022-07-29T19:04:06.856Z,99921.09
2022-07-29T19:06:34.243Z,99927.84
2022-07-29T19:09:01.047Z,99925.63
2022-07-29T19:11:27.617Z,99933.38
2022-07-29T19:13:54.344Z,99923.16
2022-07-29T19:16:21.176Z,99928.84
2022-07-29T19:18:47.840Z,99933.47
2022-07-29T19:21:14.430Z,99940.91
2022-07-29T19:24:01.758Z,99944.00
2022-07-29T19:26:29.420Z,99942.63
2022-07-29T19:29:00.611Z,99943.16
2022-07-29T19:31:29.642Z,99943.59
2022-07-29T19:33:56.545Z,99939.66
2022-07-29T19:36:23.406Z,99939.88
2022-07-29T19:38:50.744Z,99939.16
2022-07-29T19:41:17.311Z,99937.75
2022-07-29T19:43:50.504Z,99936.34
2022-07-29T19:46:19.873Z,99935.75
2022-07-29T19:48:48.983Z,99934.22
2022-07-29T19:51:16.277Z,99929.44
2022-07-29T19:53:45.222Z,99936.97
2022-07-29T19:56:14.460Z,99934.97
2022-07-29T19:58:41.846Z,99925.63
2022-07-29T20:01:10.757Z,99923.25
2022-07-29T20:03:40.190Z,99929.75
2022-07-29T20:06:07.852Z,99931.94
2022-07-29T20:08:34.774Z,99936.72
2022-07-29T20:11:04.055Z,99934.53
2022-07-29T20:13:33.066Z,99938.44
2022-07-29T20:16:00.170Z,99934.31
2022-07-29T20:18:27.451Z,99926.81
2022-07-29T20:20:57.717Z,99928.25
2022-07-29T20:23:27.779Z,99938.19
2022-07-29T20:25:59.923Z,99945.47
2022-07-29T20:28:27.169Z,99952.69
2022-07-29T20:30:54.333Z,99957.34
2022-07-29T20:33:24.267Z,99953.97
2022-07-29T20:35:53.794Z,99952.53
2022-07-29T20:38:22.624Z,99957.41
2022-07-29T20:40:50.719Z,99951.44
2022-07-29T20:43:17.344Z,99957.75
2022-07-29T20:45:44.066Z,99954.59
2022-07-29T20:48:13.908Z,99961.97
2022-07-29T20:50:41.045Z,99963.19
2022-07-29T20:53:08.149Z,99975.75
2022-07-29T20:55:34.796Z,99972.34
2022-07-29T20:58:01.853Z,99979.44
2022-07-29T21:00:28.817Z,99981.16
2022-07-29T21:02:55.389Z,99981.75
2022-07-29T21:05:24.343Z,99976.28
2022-07-29T21:07:54.306Z,99977.16
2022-07-29T21:10:23.306Z,99978.38
2022-07-29T21:12:52.098Z,99970.50
2022-07-29T21:15:20.786Z,99979.56
2022-07-29T21:17:47.690Z,99978.09
2022-07-29T21:20:18.100Z,99983.59
2022-07-29T21:22:45.021Z,99992.94
2022-07-29T21:25:12.135Z,99996.22
2022-07-29T21:27:57.248Z,99989.66
2022-07-29T21:30:26.662Z,99988.88
2022-07-29T21:32:53.220Z,99984.47
2022-07-29T21:36:01.765Z,99985.63
2022-07-29T21:38:06.854Z,99988.50
2022-07-29T21:40:33.492Z,99996.63
2022-07-29T21:43:00.486Z,99993.22
2022-07-29T21:45:29.922Z,99988.22
2022-07-29T21:47:59.220Z,99989.47
2022-07-29T21:50:26.136Z,100001.06
2022-07-29T21:52:53.510Z,100005.59
2022-07-29T21:55:22.469Z,100013.66
2022-07-29T21:57:51.441Z,100018.34
2022-07-29T22:00:21.216Z,100024.75
2022-07-29T22:02:51.392Z,100020.56
2022-07-29T22:05:17.942Z,100028.63
2022-07-29T22:07:56.148Z,100027.81
2022-07-29T22:10:24.189Z,100035.13
2022-07-29T22:12:52.029Z,100032.66
2022-07-29T22:15:18.759Z,100033.63
2022-07-29T22:17:45.817Z,100036.34
2022-07-29T22:20:14.909Z,100032.88
2022-07-29T22:22:41.484Z,100032.91
2022-07-29T22:25:10.714Z,100042.03
2022-07-29T22:27:37.467Z,100037.72
2022-07-29T22:30:09.930Z,100034.19
2022-07-29T22:32:36.994Z,100031.81
2022-07-29T22:35:03.912Z,100037.22
2022-07-29T22:37:30.494Z,100042.59
2022-07-29T22:39:57.114Z,100036.41
2022-07-29T22:42:26.651Z,100037.38
2022-07-29T22:44:56.038Z,100032.13
2022-07-29T22:47:46.133Z,100026.84
2022-07-29T22:50:13.172Z,100026.16
2022-07-29T22:52:39.771Z,100026.25
2022-07-29T22:55:08.813Z,100013.91
2022-07-29T22:57:35.611Z,100014.88
2022-07-29T23:00:02.443Z,100011.47
2022-07-29T23:02:31.974Z,100011.59
2022-07-29T23:04:59.021Z,100011.72
2022-07-29T23:07:26.067Z,100007.38
2022-07-29T23:09:52.670Z,100011.91
2022-07-29T23:12:19.179Z,100009.41
2022-07-29T23:14:45.994Z,100007.69
2022-07-29T23:17:15.124Z,100007.88
2022-07-29T23:19:41.789Z,100001.75
2022-07-29T23:22:08.409Z,99996.47
2022-07-29T23:24:39.855Z,99998.28
2022-07-29T23:27:07.533Z,99995.69
2022-07-29T23:29:37.085Z,99989.63
2022-07-29T23:32:06.143Z,99986.22
2022-07-29T23:34:32.803Z,99989.91
2022-07-29T23:37:01.844Z,99981.19
2022-07-29T23:39:32.018Z,99973.31
2022-07-29T23:41:58.600Z,99976.31
2022-07-29T23:44:25.283Z,99974.63
2022-07-29T23:46:51.918Z,99969.47
2022-07-29T23:49:21.556Z,99966.84
2022-07-29T23:51:50.490Z,99967.00
2022-07-29T23:54:17.457Z,99965.31
2022-07-29T23:56:46.474Z,99968.03
2022-07-29T23:59:15.764Z,99976.03
